Time;durP1;ratioP1;P1;durP2;ratioP2;P2;SDS_P1;SDS_P2;PMS_P1;PMS_P2;Temp;Humidity;BMP_temperature;BMP_pressure;BME280_temperature;BME280_humidity;BME280_pressure;Samples;Min_cycle;Max_cycle;Signal;HPM_P1;HPM_P2
2021/09/14 00:00:23;;;;;;;9.68;4.78;;;;;;;8.90;87.02;102040.22;4914820;29;20060;-53
2021/09/14 00:02:49;;;;;;;8.82;4.63;;;;;;;8.91;86.97;102036.53;4915438;29;20032;-53
2021/09/14 00:05:15;;;;;;;8.52;3.97;;;;;;;8.84;87.09;102035.72;4913713;29;20524;-56
2021/09/14 00:07:40;;;;;;;8.18;4.53;;;;;;;8.83;87.19;102038.59;4914667;29;20137;-52
2021/09/14 00:10:07;;;;;;;10.65;5.32;;;;;;;8.82;87.48;102034.28;4914287;29;20526;-54
2021/09/14 00:12:32;;;;;;;8.52;4.43;;;;;;;8.81;87.42;102051.34;4913871;29;20092;-57
2021/09/14 00:14:58;;;;;;;7.18;3.72;;;;;;;8.74;86.90;102048.66;4914245;29;20032;-55
2021/09/14 00:17:24;;;;;;;10.35;4.25;;;;;;;8.71;86.90;102049.88;4916464;29;20079;-54
2021/09/14 00:19:49;;;;;;;5.88;3.22;;;;;;;8.65;86.59;102058.72;4913578;29;20425;-56
2021/09/14 00:22:15;;;;;;;11.85;3.97;;;;;;;8.61;86.88;102060.13;4917803;29;20514;-56
2021/09/14 00:24:40;;;;;;;7.13;3.58;;;;;;;8.57;86.80;102058.06;4913362;29;20136;-55
2021/09/14 00:27:06;;;;;;;8.82;3.67;;;;;;;8.59;86.76;102053.34;4913313;29;20034;-54
2021/09/14 00:29:31;;;;;;;7.55;3.85;;;;;;;8.55;86.60;102042.25;4913137;29;20107;-54
2021/09/14 00:31:57;;;;;;;5.95;3.70;;;;;;;8.49;86.78;102045.75;4913708;29;20475;-56
2021/09/14 00:34:22;;;;;;;5.70;3.30;;;;;;;8.46;86.36;102038.97;4913991;29;20315;-53
2021/09/14 00:36:47;;;;;;;8.88;3.78;;;;;;;8.46;86.58;102048.81;4916807;29;20026;-54
2021/09/14 00:39:13;;;;;;;9.70;4.28;;;;;;;8.45;86.48;102047.19;4912227;29;20063;-53
2021/09/14 00:41:39;;;;;;;7.82;4.20;;;;;;;8.42;86.95;102040.38;4913523;29;20063;-53
2021/09/14 00:44:04;;;;;;;6.25;3.67;;;;;;;8.45;87.10;102049.84;4911292;29;20036;-54
2021/09/14 00:46:30;;;;;;;7.93;4.20;;;;;;;8.44;86.88;102045.53;4913474;29;20031;-56
2021/09/14 00:48:56;;;;;;;7.55;3.78;;;;;;;8.39;86.77;102042.63;4915749;29;20036;-55
2021/09/14 00:51:21;;;;;;;7.55;3.40;;;;;;;8.36;87.21;102043.03;4912990;29;20731;-53
2021/09/14 00:53:48;;;;;;;6.60;3.28;;;;;;;8.33;87.37;102049.56;4912825;29;20039;-55
2021/09/14 00:56:15;;;;;;;5.13;3.70;;;;;;;8.31;87.03;102048.97;4910804;29;20555;-55
2021/09/14 00:58:41;;;;;;;7.82;3.53;;;;;;;8.28;86.97;102057.38;4900302;29;21695;-53
2021/09/14 01:01:06;;;;;;;6.13;3.63;;;;;;;8.27;87.35;102055.72;4916118;29;20019;-53
2021/09/14 01:03:32;;;;;;;4.75;3.08;;;;;;;8.25;87.50;102059.59;4912343;29;20032;-52
2021/09/14 01:05:57;;;;;;;8.82;3.35;;;;;;;8.25;87.55;102063.09;4915788;29;20023;-54
2021/09/14 01:08:24;;;;;;;5.68;2.97;;;;;;;8.25;87.28;102056.94;4910750;29;20505;-54
2021/09/14 01:10:50;;;;;;;5.60;3.00;;;;;;;8.24;87.21;102060.63;4910971;29;20039;-55
2021/09/14 01:13:15;;;;;;;8.27;3.33;;;;;;;8.27;87.16;102052.22;4913454;29;20078;-53
2021/09/14 01:15:41;;;;;;;6.88;3.30;;;;;;;8.27;87.12;102060.25;4916158;29;20363;-52
2021/09/14 01:18:06;;;;;;;9.38;4.05;;;;;;;8.29;87.00;102052.84;4916004;29;20024;-53
2021/09/14 01:20:32;;;;;;;10.07;4.63;;;;;;;8.32;86.75;102050.59;4909886;29;20035;-53
2021/09/14 01:22:57;;;;;;;10.80;3.97;;;;;;;8.38;86.30;102052.47;4916964;29;20036;-58
2021/09/14 01:25:24;;;;;;;9.25;3.22;;;;;;;8.41;86.17;102051.25;4910332;29;20042;-53
2021/09/14 01:27:51;;;;;;;7.05;3.17;;;;;;;8.46;86.25;102057.66;4913351;29;20036;-54
2021/09/14 01:30:20;;;;;;;5.00;3.05;;;;;;;8.56;86.06;102051.09;4913786;29;20552;-53
2021/09/14 01:32:50;;;;;;;5.93;3.30;;;;;;;8.62;86.28;102059.13;4914476;29;20058;-55
2021/09/14 01:35:17;;;;;;;8.38;3.17;;;;;;;8.69;86.24;102048.44;4914822;29;20027;-54
2021/09/14 01:37:43;;;;;;;7.07;2.70;;;;;;;8.75;86.66;102047.63;4915757;29;20028;-52
2021/09/14 01:40:09;;;;;;;7.47;3.95;;;;;;;8.82;86.53;102053.81;4914692;29;20034;-54
2021/09/14 01:42:35;;;;;;;7.35;4.05;;;;;;;8.89;86.38;102049.28;4913538;29;20381;-52
2021/09/14 01:45:01;;;;;;;6.63;3.72;;;;;;;8.94;86.72;102043.31;4913018;29;20028;-53
2021/09/14 01:47:27;;;;;;;7.53;3.95;;;;;;;9.01;86.78;102041.47;4914434;29;20024;-53
2021/09/14 01:49:52;;;;;;;12.10;4.47;;;;;;;9.10;86.60;102050.91;4914091;29;20032;-55
2021/09/14 01:52:18;;;;;;;9.52;4.28;;;;;;;9.16;86.90;102050.13;4914371;29;20036;-55
2021/09/14 01:54:43;;;;;;;8.13;3.95;;;;;;;9.23;86.72;102050.91;4914857;29;20028;-55
2021/09/14 01:57:09;;;;;;;6.32;3.35;;;;;;;9.31;87.19;102042.66;4915346;29;20028;-55
2021/09/14 01:59:36;;;;;;;7.13;4.38;;;;;;;9.35;87.08;102043.91;4916023;29;20034;-53
2021/09/14 02:02:18;;;;;;;10.05;3.97;;;;;;;9.39;87.27;102045.13;4914641;29;20471;-56
2021/09/14 02:58:46;;;;;;;10.18;3.60;;;;;;;9.20;90.52;102018.44;4917513;29;20055;-52
2021/09/14 03:01:14;;;;;;;6.97;3.45;;;;;;;9.21;90.29;102025.41;4915689;29;20498;-55
2021/09/14 03:03:44;;;;;;;6.47;3.53;;;;;;;9.18;90.83;102020.50;4915812;29;20119;-54
2021/09/14 03:06:10;;;;;;;4.95;2.90;;;;;;;9.22;90.50;102029.75;4914560;29;20028;-56
2021/09/14 03:08:38;;;;;;;6.35;3.30;;;;;;;9.27;90.35;102027.25;4918924;29;20170;-53
2021/09/14 03:11:20;;;;;;;11.20;3.90;;;;;;;9.33;90.40;102024.56;4917522;29;20379;-56
2021/09/14 03:13:46;;;;;;;6.43;3.95;;;;;;;9.46;90.24;102036.28;4916323;29;20115;-55
2021/09/14 03:16:13;;;;;;;8.23;3.90;;;;;;;9.51;89.89;102031.94;4917417;29;20110;-54
2021/09/14 03:18:39;;;;;;;7.13;3.42;;;;;;;9.58;89.89;102035.44;4916637;29;20593;-53
2021/09/14 03:21:06;;;;;;;6.30;3.35;;;;;;;9.64;90.03;102025.72;4916389;29;20047;-53
2021/09/14 03:23:33;;;;;;;7.57;3.80;;;;;;;9.72;89.48;102025.50;4919590;29;20435;-55
2021/09/14 03:25:59;;;;;;;6.07;3.25;;;;;;;9.79;89.59;102017.44;4920637;29;20067;-53
2021/09/14 03:28:25;;;;;;;4.95;2.92;;;;;;;9.83;89.72;102021.34;4915885;29;20063;-52
2021/09/14 03:30:51;;;;;;;7.30;3.00;;;;;;;9.86;89.98;102021.72;4919608;29;20036;-56
2021/09/14 03:33:17;;;;;;;5.22;2.92;;;;;;;9.91;89.70;102016.59;4917780;29;20082;-55
2021/09/14 03:35:42;;;;;;;6.03;2.85;;;;;;;9.99;89.68;102018.19;4915354;29;20040;-53
2021/09/14 03:38:08;;;;;;;6.32;3.08;;;;;;;10.04;89.64;102020.22;4917849;29;20471;-53
2021/09/14 03:40:34;;;;;;;9.52;4.03;;;;;;;10.05;89.53;102013.81;4916370;29;20054;-55
2021/09/14 03:43:00;;;;;;;5.80;3.25;;;;;;;10.10;89.60;102020.19;4915192;29;20177;-52
2021/09/14 03:45:26;;;;;;;4.75;2.72;;;;;;;10.15;89.49;102019.56;4904200;29;20027;-56
2021/09/14 03:47:51;;;;;;;5.00;3.47;;;;;;;10.18;89.80;102019.13;4919599;29;20036;-52
2021/09/14 03:50:17;;;;;;;11.75;3.65;;;;;;;10.15;90.04;102014.19;4919329;29;20036;-56
2021/09/14 03:52:42;;;;;;;6.88;4.25;;;;;;;9.87;94.59;102019.88;4916880;29;20111;-53
2021/09/14 03:55:09;;;;;;;8.77;4.07;;;;;;;9.82;95.83;102019.69;4918310;29;20032;-53
2021/09/14 03:57:34;;;;;;;6.43;3.88;;;;;;;9.90;95.13;102019.47;4915622;29;20042;-54
2021/09/14 04:00:00;;;;;;;6.30;4.00;;;;;;;10.06;93.50;102015.50;4915284;29;20039;-55
2021/09/14 04:07:38;;;;;;;8.45;4.30;;;;;;;9.98;95.05;102028.06;4913565;29;20095;-53
2021/09/14 04:10:06;;;;;;;6.28;4.20;;;;;;;10.15;93.82;102020.38;4915618;29;20039;-56
2021/09/14 04:12:31;;;;;;;8.60;4.30;;;;;;;10.22;93.22;102018.50;4915154;29;20171;-53
2021/09/14 04:14:57;;;;;;;13.93;4.80;;;;;;;10.35;92.49;102022.16;4920116;29;20114;-56
2021/09/14 04:17:22;;;;;;;10.10;4.95;;;;;;;10.40;91.85;102028.50;4913220;29;20036;-53
2021/09/14 04:19:48;;;;;;;10.10;4.63;;;;;;;10.43;91.76;102036.13;4915134;29;20031;-56
2021/09/14 04:22:14;;;;;;;8.90;4.80;;;;;;;10.46;91.52;102035.69;4916151;29;20399;-52
2021/09/14 04:24:39;;;;;;;8.70;4.25;;;;;;;10.48;91.51;102030.94;4914192;29;20569;-52
2021/09/14 04:27:06;;;;;;;13.05;5.20;;;;;;;10.53;91.33;102027.59;4911060;29;20039;-55
2021/09/14 04:29:31;;;;;;;7.53;4.35;;;;;;;10.56;91.50;102030.66;4918497;29;20491;-57
2021/09/14 04:31:57;;;;;;;10.00;4.28;;;;;;;10.59;91.27;102029.41;4916848;29;20404;-52
2021/09/14 04:34:22;;;;;;;6.53;4.35;;;;;;;10.65;90.94;102033.09;4915089;29;20051;-52
2021/09/14 04:36:48;;;;;;;8.25;4.47;;;;;;;10.67;91.10;102028.34;4911690;29;20055;-52
2021/09/14 04:39:14;;;;;;;7.72;3.70;;;;;;;10.71;91.09;102030.34;4918612;29;20024;-53
2021/09/14 04:41:39;;;;;;;9.38;4.22;;;;;;;10.66;91.50;102029.38;4887579;29;20118;-55
2021/09/14 04:44:05;;;;;;;12.48;4.20;;;;;;;10.75;90.91;102025.38;4915507;29;20031;-53
2021/09/14 04:46:31;;;;;;;9.27;4.05;;;;;;;10.79;91.06;102029.28;4917769;29;20549;-54
2021/09/14 04:48:56;;;;;;;7.75;4.50;;;;;;;10.84;91.00;102026.75;4912995;29;20031;-54
2021/09/14 04:51:21;;;;;;;7.80;3.80;;;;;;;10.85;90.84;102025.72;4915911;29;20115;-55
2021/09/14 04:53:47;;;;;;;6.63;3.80;;;;;;;10.90;90.47;102028.56;4916170;29;20027;-56
2021/09/14 04:56:13;;;;;;;6.50;3.85;;;;;;;10.89;90.75;102027.75;4916944;29;20079;-56
2021/09/14 04:58:40;;;;;;;5.78;3.80;;;;;;;10.96;90.54;102034.94;4914661;29;20139;-53
2021/09/14 05:01:06;;;;;;;8.95;4.18;;;;;;;10.97;90.47;102032.03;4917558;29;20033;-54
2021/09/14 05:03:32;;;;;;;7.93;4.47;;;;;;;11.01;90.58;102033.22;4916044;29;20379;-55
2021/09/14 05:05:57;;;;;;;8.10;4.40;;;;;;;11.03;90.59;102041.03;4915095;29;20031;-54
2021/09/14 05:08:23;;;;;;;11.90;4.07;;;;;;;11.07;90.48;102037.69;4913838;29;20016;-52
2021/09/14 05:10:49;;;;;;;12.07;4.30;;;;;;;11.13;90.37;102035.97;4909853;29;20130;-52
2021/09/14 05:13:15;;;;;;;5.00;3.65;;;;;;;11.15;90.08;102032.06;4912456;29;20035;-52
2021/09/14 05:15:41;;;;;;;7.07;3.75;;;;;;;11.19;90.18;102030.56;4911039;29;20081;-54
2021/09/14 05:18:12;;;;;;;10.13;4.38;;;;;;;11.23;89.92;102035.50;4910906;29;20047;-53
2021/09/14 05:20:40;;;;;;;7.38;4.20;;;;;;;11.24;89.87;102027.22;4909897;29;20031;-52
2021/09/14 05:23:15;;;;;;;7.05;3.97;;;;;;;11.28;90.11;102027.59;4911070;29;20028;-55
2021/09/14 05:25:44;;;;;;;7.70;4.32;;;;;;;11.30;89.68;102029.00;4909646;29;20031;-52
2021/09/14 05:28:13;;;;;;;7.68;4.13;;;;;;;11.33;89.81;102035.81;4910209;29;20028;-56
2021/09/14 05:30:40;;;;;;;8.65;4.40;;;;;;;11.42;89.09;102034.47;4911114;29;20179;-57
2021/09/14 05:33:06;;;;;;;8.70;4.15;;;;;;;11.41;89.42;102035.53;4908738;29;20111;-54
2021/09/14 05:35:47;;;;;;;11.43;4.28;;;;;;;11.43;89.56;102038.81;4909664;29;20485;-56
2021/09/14 05:38:15;;;;;;;11.30;4.57;;;;;;;11.48;89.36;102030.91;4908913;29;20039;-55
2021/09/14 05:40:41;;;;;;;10.43;4.45;;;;;;;11.56;89.07;102032.50;4908394;29;20082;-55
2021/09/14 05:43:06;;;;;;;9.68;4.25;;;;;;;11.57;89.06;102036.81;4908760;29;20340;-54
2021/09/14 05:45:32;;;;;;;10.10;4.50;;;;;;;11.63;89.22;102035.91;4909593;29;20036;-56
2021/09/14 05:47:59;;;;;;;7.80;4.32;;;;;;;11.68;88.95;102036.91;4910310;29;20047;-56
2021/09/14 05:50:24;;;;;;;9.40;4.68;;;;;;;11.72;88.69;102032.72;4907724;29;20119;-53
2021/09/14 05:52:51;;;;;;;10.32;4.63;;;;;;;11.78;88.63;102036.34;4907827;29;20123;-52
2021/09/14 05:55:17;;;;;;;8.50;5.10;;;;;;;11.84;88.34;102045.41;4909071;29;20028;-52
2021/09/14 05:57:43;;;;;;;10.50;4.80;;;;;;;11.89;88.45;102042.88;4908118;29;20447;-54
2021/09/14 06:00:09;;;;;;;9.30;4.85;;;;;;;11.97;87.96;102043.38;4907827;29;20192;-54
2021/09/14 06:02:34;;;;;;;8.18;5.15;;;;;;;12.02;87.60;102048.88;4910440;29;20063;-54
2021/09/14 06:05:00;;;;;;;7.40;4.55;;;;;;;12.08;87.50;102053.38;4912495;29;20114;-52
2021/09/14 06:07:25;;;;;;;13.75;5.00;;;;;;;12.15;87.10;102045.22;4912652;29;20067;-53
2021/09/14 06:09:51;;;;;;;9.57;4.80;;;;;;;12.24;86.70;102048.44;4908398;29;20096;-52
2021/09/14 06:12:16;;;;;;;6.72;4.80;;;;;;;12.28;86.66;102049.63;4908473;29;20065;-54
2021/09/14 06:14:42;;;;;;;10.20;4.90;;;;;;;12.32;86.42;102051.59;4906678;29;20047;-54
2021/09/14 06:17:07;;;;;;;9.43;5.03;;;;;;;12.42;85.80;102053.75;4908537;29;20079;-52
2021/09/14 06:19:33;;;;;;;11.90;5.75;;;;;;;12.40;85.89;102045.94;4907802;29;20098;-54
2021/09/14 06:22:01;;;;;;;8.32;4.47;;;;;;;12.52;85.67;102047.81;4908420;29;20039;-54
2021/09/14 06:24:27;;;;;;;8.48;4.95;;;;;;;12.62;85.26;102048.91;4910598;29;20028;-53
2021/09/14 06:26:52;;;;;;;13.02;5.53;;;;;;;12.70;84.92;102040.50;4909338;29;20093;-52
2021/09/14 06:29:18;;;;;;;9.65;5.07;;;;;;;12.80;85.16;102047.19;4907076;29;20055;-52
2021/09/14 06:31:43;;;;;;;8.93;5.32;;;;;;;12.90;84.64;102040.19;4907816;29;20032;-54
2021/09/14 06:34:09;;;;;;;10.05;5.38;;;;;;;12.99;84.77;102029.91;4907444;29;20047;-52
2021/09/14 06:36:34;;;;;;;8.75;4.60;;;;;;;13.10;84.58;102042.53;4911845;29;20035;-54
2021/09/14 06:39:00;;;;;;;11.23;5.00;;;;;;;13.20;83.72;102042.00;4914357;29;20036;-52
2021/09/14 06:41:27;;;;;;;7.25;4.75;;;;;;;13.30;83.66;102047.63;4915106;29;20025;-53
2021/09/14 06:43:53;;;;;;;7.70;4.35;;;;;;;13.43;83.03;102051.94;4912267;29;20478;-52
2021/09/14 06:46:18;;;;;;;6.60;4.15;;;;;;;13.51;82.34;102055.09;4915357;29;20076;-52
2021/09/14 06:48:44;;;;;;;6.60;4.45;;;;;;;13.59;82.48;102052.03;4912756;29;20048;-54
2021/09/14 06:51:10;;;;;;;10.57;5.03;;;;;;;13.71;82.23;102051.22;4914652;29;20039;-52
2021/09/14 06:53:35;;;;;;;9.50;5.07;;;;;;;13.82;81.81;102058.44;4906268;29;20032;-52
2021/09/14 06:56:01;;;;;;;9.10;4.93;;;;;;;13.93;81.59;102052.22;4914512;29;20043;-57
2021/09/14 06:58:27;;;;;;;8.77;4.35;;;;;;;14.06;81.32;102051.94;4913276;29;20036;-52
2021/09/14 07:00:53;;;;;;;9.48;4.70;;;;;;;14.19;80.66;102050.84;4903460;29;20733;-52
2021/09/14 07:03:18;;;;;;;8.55;5.30;;;;;;;14.32;80.29;102057.81;4911213;29;20716;-52
2021/09/14 07:05:44;;;;;;;9.02;5.20;;;;;;;14.42;79.98;102061.53;4911724;29;20044;-52
2021/09/14 07:08:09;;;;;;;8.35;4.88;;;;;;;14.55;79.80;102065.84;4912044;29;20055;-53
2021/09/14 07:10:35;;;;;;;7.22;4.80;;;;;;;14.70;78.72;102067.97;4911363;29;20047;-52
2021/09/14 07:13:00;;;;;;;11.27;4.55;;;;;;;14.78;78.65;102057.63;4909506;29;20474;-54
2021/09/14 07:15:26;;;;;;;8.65;4.65;;;;;;;14.79;78.61;102059.25;4911801;29;20079;-52
2021/09/14 07:17:51;;;;;;;14.70;4.93;;;;;;;14.99;78.58;102057.94;4911497;29;20070;-53
2021/09/14 07:20:17;;;;;;;7.93;4.40;;;;;;;15.18;77.85;102059.31;4911336;29;20653;-52
2021/09/14 07:22:42;;;;;;;7.30;5.00;;;;;;;15.36;77.28;102061.75;4910700;29;20051;-54
2021/09/14 07:25:08;;;;;;;9.15;4.55;;;;;;;15.54;76.83;102054.44;4898304;29;20032;-52
2021/09/14 07:27:33;;;;;;;7.57;4.43;;;;;;;15.70;76.03;102067.13;4910916;29;20020;-52
2021/09/14 07:29:59;;;;;;;10.82;4.72;;;;;;;15.89;75.19;102060.34;4910362;29;20389;-52
2021/09/14 07:32:25;;;;;;;6.50;4.65;;;;;;;16.18;74.24;102057.44;4911565;29;20055;-52
2021/09/14 07:34:51;;;;;;;12.48;5.00;;;;;;;16.33;73.33;102068.41;4910538;29;20083;-52
2021/09/14 07:37:16;;;;;;;10.07;4.65;;;;;;;16.45;72.74;102063.69;4912685;29;20031;-53
2021/09/14 07:39:42;;;;;;;11.07;4.32;;;;;;;16.57;72.94;102061.63;4903916;29;20081;-55
2021/09/14 07:42:07;;;;;;;8.77;4.15;;;;;;;16.75;72.68;102065.06;4910739;29;20030;-55
2021/09/14 07:44:33;;;;;;;7.90;4.30;;;;;;;16.79;72.80;102053.47;4910330;29;20184;-53
2021/09/14 07:46:58;;;;;;;10.60;4.75;;;;;;;16.94;72.60;102060.91;4910908;29;20032;-54
2021/09/14 07:49:24;;;;;;;9.70;4.40;;;;;;;17.11;72.15;102056.16;4910474;29;20036;-53
2021/09/14 07:51:49;;;;;;;9.95;4.30;;;;;;;17.25;71.55;102061.13;4910105;29;20062;-54
2021/09/14 07:54:15;;;;;;;8.13;4.45;;;;;;;17.31;71.00;102058.19;4912498;29;20368;-52
2021/09/14 07:56:40;;;;;;;12.98;4.43;;;;;;;17.41;70.99;102060.13;4909976;29;20094;-52
2021/09/14 07:59:06;;;;;;;10.45;4.88;;;;;;;17.70;70.30;102053.28;4908488;29;20024;-52
2021/09/14 08:01:31;;;;;;;7.47;4.55;;;;;;;18.01;69.75;102050.72;4910224;29;20455;-52
2021/09/14 08:03:57;;;;;;;7.50;3.88;;;;;;;18.32;68.73;102049.72;4910198;29;20020;-52
2021/09/14 08:06:22;;;;;;;10.50;4.22;;;;;;;18.38;68.04;102048.63;4909991;29;20399;-52
2021/09/14 08:08:48;;;;;;;9.85;4.28;;;;;;;18.61;67.67;102054.63;4910258;29;20043;-55
2021/09/14 08:11:16;;;;;;;9.18;3.55;;;;;;;18.87;65.87;102056.31;4909992;29;20060;-52
2021/09/14 08:13:44;;;;;;;6.18;3.17;;;;;;;19.09;65.37;102052.50;4909550;29;20121;-53
2021/09/14 08:16:10;;;;;;;9.52;3.08;;;;;;;19.21;64.33;102053.00;4902063;29;20039;-53
2021/09/14 08:18:35;;;;;;;5.05;2.42;;;;;;;19.38;63.22;102053.50;4909942;29;20036;-53
2021/09/14 08:21:01;;;;;;;5.68;2.30;;;;;;;19.52;61.86;102057.28;4910930;29;20127;-52
2021/09/14 08:23:27;;;;;;;4.20;2.50;;;;;;;19.47;60.53;102065.47;4910448;29;20051;-54
2021/09/14 08:25:52;;;;;;;3.95;1.83;;;;;;;19.59;60.21;102052.44;4910097;29;20351;-54
2021/09/14 08:28:18;;;;;;;4.53;1.60;;;;;;;19.66;58.70;102051.31;4909109;29;21629;-52
2021/09/14 08:30:43;;;;;;;3.13;1.58;;;;;;;19.69;56.85;102051.56;4909809;29;20040;-55
2021/09/14 08:33:09;;;;;;;6.10;1.45;;;;;;;19.85;54.61;102053.13;4910141;29;20157;-53
2021/09/14 08:35:35;;;;;;;2.38;1.35;;;;;;;20.07;55.21;102058.19;4910186;29;20031;-53
2021/09/14 08:38:02;;;;;;;2.00;1.33;;;;;;;20.30;53.87;102061.34;4910422;29;20523;-55
2021/09/14 08:40:28;;;;;;;4.70;1.70;;;;;;;20.45;54.18;102059.34;4908674;29;20032;-53
2021/09/14 08:42:55;;;;;;;2.15;1.20;;;;;;;20.81;53.23;102068.06;4910040;29;20036;-53
2021/09/14 08:45:21;;;;;;;3.45;1.30;;;;;;;21.10;51.35;102072.75;4908347;29;20569;-53
2021/09/14 08:47:47;;;;;;;7.15;1.85;;;;;;;21.37;50.15;102059.44;4909499;29;20115;-52
2021/09/14 08:50:13;;;;;;;5.47;1.55;;;;;;;21.51;48.65;102069.63;4909848;29;20042;-54
2021/09/14 08:52:39;;;;;;;4.72;1.48;;;;;;;21.15;48.74;102060.97;4909288;29;20296;-52
2021/09/14 08:55:06;;;;;;;2.72;1.20;;;;;;;20.92;48.59;102070.72;4907838;29;20047;-53
2021/09/14 08:57:31;;;;;;;5.32;1.27;;;;;;;20.84;48.61;102072.16;4910004;29;20024;-54
2021/09/14 08:59:57;;;;;;;4.97;1.48;;;;;;;20.73;48.78;102070.59;4908037;29;20442;-53
2021/09/14 09:02:23;;;;;;;1.98;1.20;;;;;;;20.65;49.30;102060.34;4909344;29;20023;-53
2021/09/14 09:05:00;;;;;;;3.85;1.30;;;;;;;20.64;47.93;102062.22;4911048;29;20169;-52
2021/09/14 09:07:35;;;;;;;2.88;1.75;;;;;;;20.90;47.84;102060.13;4909759;29;20039;-54
2021/09/14 09:10:14;;;;;;;;;;;;;;;21.46;48.47;102051.41;4910052;29;20538;-54
2021/09/14 09:12:41;;;;;;;2.50;1.38;;;;;;;21.91;47.58;102052.00;4908458;29;19970;-53
2021/09/14 09:15:09;;;;;;;3.20;1.63;;;;;;;21.97;47.90;102057.06;4909594;29;20099;-54
2021/09/14 09:17:34;;;;;;;3.88;1.48;;;;;;;21.90;46.50;102051.19;4910847;29;20036;-53
2021/09/14 09:20:06;;;;;;;2.85;1.65;;;;;;;21.79;46.41;102063.31;4909806;29;20513;-53
2021/09/14 09:22:32;;;;;;;5.35;1.30;;;;;;;21.80;46.27;102051.28;4909112;29;20103;-53
2021/09/14 09:24:57;;;;;;;5.20;1.55;;;;;;;21.75;44.76;102062.28;4908149;29;20578;-55
2021/09/14 09:27:27;;;;;;;7.28;1.40;;;;;;;22.23;44.22;102056.75;4907887;29;20091;-53
2021/09/14 09:29:59;;;;;;;3.83;1.88;;;;;;;22.85;44.37;102060.19;4908949;29;20557;-53
2021/09/14 09:32:25;;;;;;;2.45;1.20;;;;;;;22.88;44.22;102054.13;4909702;29;20032;-54
2021/09/14 09:35:02;;;;;;;3.55;1.42;;;;;;;22.72;43.40;102048.06;4910665;29;20082;-53
2021/09/14 09:37:27;;;;;;;3.40;1.30;;;;;;;22.55;43.27;102050.53;4910892;29;20032;-53
2021/09/14 09:39:53;;;;;;;3.38;1.10;;;;;;;22.58;44.43;102052.66;4911523;29;20383;-53
2021/09/14 09:42:20;;;;;;;4.13;1.55;;;;;;;22.44;44.17;102054.53;4908897;29;20699;-53
2021/09/14 09:44:54;;;;;;;3.58;1.25;;;;;;;22.68;44.29;102049.78;4909388;29;20036;-55
2021/09/14 09:47:20;;;;;;;2.20;1.30;;;;;;;22.83;44.65;102046.03;4909960;29;20100;-53
2021/09/14 09:49:49;;;;;;;2.03;1.10;;;;;;;22.62;43.74;102045.50;4910833;29;20058;-53
2021/09/14 09:52:16;;;;;;;3.30;1.20;;;;;;;22.68;44.02;102044.31;4910098;29;20040;-53
2021/09/14 09:54:43;;;;;;;2.05;1.15;;;;;;;22.76;43.94;102040.09;4909471;29;20059;-54
2021/09/14 09:57:09;;;;;;;3.17;1.45;;;;;;;22.88;44.08;102043.19;4910437;29;20028;-54
2021/09/14 09:59:35;;;;;;;2.20;1.42;;;;;;;22.41;44.31;102039.53;4909886;29;20500;-53
2021/09/14 10:02:12;;;;;;;3.40;1.20;;;;;;;22.56;44.05;102039.31;4910582;29;20028;-53
2021/09/14 10:04:46;;;;;;;4.32;1.40;;;;;;;22.53;43.37;102036.38;4910000;29;20418;-53
2021/09/14 10:07:12;;;;;;;3.83;1.65;;;;;;;22.64;42.48;102026.91;4910349;29;20028;-54
2021/09/14 10:09:49;;;;;;;2.67;1.40;;;;;;;22.22;42.92;102022.38;4908518;29;20040;-52
2021/09/14 10:12:24;;;;;;;2.30;1.15;;;;;;;22.27;42.90;102017.66;4910933;29;20043;-53
2021/09/14 10:15:03;;;;;;;4.32;1.42;;;;;;;22.74;44.23;102020.44;4910392;29;20056;-53
2021/09/14 10:17:30;;;;;;;3.42;1.10;;;;;;;23.17;42.81;102021.91;4911186;29;20334;-53
2021/09/14 10:19:56;;;;;;;2.78;1.52;;;;;;;23.39;41.80;102014.94;4921088;29;20035;-55
2021/09/14 10:22:27;;;;;;;3.78;1.40;;;;;;;23.62;43.46;102011.19;4910374;29;20121;-55
2021/09/14 10:24:58;;;;;;;3.15;1.30;;;;;;;23.86;41.71;102016.41;4912897;29;20034;-53
2021/09/14 10:27:40;;;;;;;6.68;1.73;;;;;;;24.11;42.10;102015.88;4909076;29;20042;-55
2021/09/14 10:30:09;;;;;;;4.35;1.20;;;;;;;24.23;40.64;102017.22;4913137;29;20398;-54
2021/09/14 10:32:43;;;;;;;3.00;1.33;;;;;;;24.64;41.04;102014.38;4914618;29;20071;-53
2021/09/14 10:35:09;;;;;;;;;;;;;;;24.33;41.06;102017.03;4923565;29;20035;-54
2021/09/14 10:37:36;;;;;;;2.58;1.08;;;;;;;24.46;41.25;102015.38;4922287;29;20496;-54
2021/09/14 10:40:15;;;;;;;2.63;1.40;;;;;;;24.40;39.86;102012.72;4924711;28;20050;-54
2021/09/14 10:42:46;;;;;;;2.38;1.10;;;;;;;24.59;39.33;102014.47;4917222;29;20113;-54
2021/09/14 10:45:17;;;;;;;5.32;1.52;;;;;;;24.68;40.64;102012.63;4914869;29;20111;-53
2021/09/14 10:47:48;;;;;;;4.90;1.40;;;;;;;24.95;40.19;102006.94;4917788;29;20059;-53
2021/09/14 10:50:32;;;;;;;4.15;1.80;;;;;;;25.43;39.19;102003.47;4925854;28;20078;-56
2021/09/14 10:53:02;;;;;;;3.83;1.60;;;;;;;25.73;37.79;102006.50;4922728;29;20107;-55
2021/09/14 10:55:31;;;;;;;2.13;1.27;;;;;;;25.58;38.04;102003.03;4914141;29;20563;-56
2021/09/14 10:58:01;;;;;;;3.70;1.67;;;;;;;25.55;38.48;101989.97;4932887;29;20046;-56
2021/09/14 11:00:32;;;;;;;4.40;1.83;;;;;;;25.42;38.69;102001.84;4912840;29;21017;-55
2021/09/14 11:03:00;;;;;;;4.03;1.45;;;;;;;25.56;39.53;102007.22;4912580;29;20440;-55
2021/09/14 11:05:30;;;;;;;3.92;1.60;;;;;;;25.52;39.04;102009.00;4913240;29;20131;-56
2021/09/14 11:08:03;;;;;;;2.53;1.40;;;;;;;25.66;38.89;102006.09;4909780;29;20367;-56
2021/09/14 11:10:39;;;;;;;8.52;2.20;;;;;;;25.60;38.37;102010.94;4912162;29;20119;-55
2021/09/14 11:13:05;;;;;;;5.20;1.42;;;;;;;26.16;38.68;102001.84;4913204;29;20107;-56
2021/09/14 11:15:31;;;;;;;2.05;1.40;;;;;;;26.55;38.04;102004.75;4913703;29;20406;-56
2021/09/14 11:17:56;;;;;;;4.35;2.08;;;;;;;26.90;37.40;102008.22;4912515;29;20217;-56
2021/09/14 11:20:26;;;;;;;2.83;1.80;;;;;;;27.13;37.47;102006.88;4912555;29;20032;-55
2021/09/14 11:22:52;;;;;;;3.45;1.67;;;;;;;27.08;36.54;102005.09;4917332;29;20031;-56
2021/09/14 11:25:20;;;;;;;5.00;2.17;;;;;;;26.84;36.26;102004.03;4912598;29;20024;-56
2021/09/14 11:28:03;;;;;;;4.70;1.90;;;;;;;26.56;35.99;102007.16;4916185;29;20393;-56
2021/09/14 11:30:30;;;;;;;3.45;2.13;;;;;;;26.33;36.20;102011.22;4912821;29;20028;-56
2021/09/14 11:32:58;;;;;;;2.47;2.15;;;;;;;26.14;36.33;102006.84;4913055;29;20048;-55
2021/09/14 11:35:24;;;;;;;5.00;2.17;;;;;;;26.04;36.36;102009.13;4916510;29;20019;-54
2021/09/14 11:38:05;;;;;;;4.75;2.25;;;;;;;25.85;35.92;102001.16;4920889;29;20538;-56
2021/09/14 11:40:32;;;;;;;5.65;2.20;;;;;;;25.82;36.62;102007.31;4910495;29;20134;-55
2021/09/14 11:43:03;;;;;;;7.10;2.15;;;;;;;26.26;36.76;101997.97;4910094;29;20082;-56
2021/09/14 11:45:30;;;;;;;5.07;2.63;;;;;;;26.54;36.61;101997.63;4912136;29;20043;-55
2021/09/14 11:47:57;;;;;;;4.22;2.20;;;;;;;26.40;36.42;101995.09;4912231;29;20193;-56
2021/09/14 11:50:33;;;;;;;2.40;2.13;;;;;;;26.16;36.43;101990.84;4910258;29;20027;-55
2021/09/14 11:53:13;;;;;;;5.85;2.20;;;;;;;26.58;37.03;101985.69;4910143;29;20028;-55
2021/09/14 11:55:41;;;;;;;4.53;1.98;;;;;;;27.91;33.83;101985.22;4911243;29;20032;-56
2021/09/14 11:58:07;;;;;;;3.60;1.98;;;;;;;27.80;33.20;101986.75;4909870;29;20035;-55
2021/09/14 12:00:42;;;;;;;1.80;1.70;;;;;;;28.26;33.97;101994.03;4909140;29;20427;-56
2021/09/14 12:03:09;;;;;;;2.47;1.73;;;;;;;31.01;29.01;101975.72;4922791;29;20074;-54
2021/09/14 12:05:35;;;;;;;4.55;2.25;;;;;;;33.10;26.30;101975.72;4928275;29;20501;-56
2021/09/14 12:08:08;;;;;;;2.80;1.80;;;;;;;35.12;24.04;101963.41;4910030;29;20042;-57
2021/09/14 12:10:46;;;;;;;2.27;2.00;;;;;;;36.23;21.60;101961.97;4911327;29;20255;-52
2021/09/14 12:13:17;;;;;;;2.78;2.10;;;;;;;37.32;20.79;101959.66;4917102;29;20939;-57
2021/09/14 12:15:45;;;;;;;2.20;1.83;;;;;;;38.15;20.19;101952.53;4926809;29;20039;-53
2021/09/14 12:18:14;;;;;;;2.25;1.88;;;;;;;39.36;18.95;101951.56;4915036;29;20028;-55
2021/09/14 12:20:40;;;;;;;4.55;1.90;;;;;;;39.87;17.76;101942.13;4908407;29;21421;-55
2021/09/14 12:23:05;;;;;;;2.05;1.63;;;;;;;40.68;17.62;101936.50;4910868;29;20101;-55
2021/09/14 12:25:31;;;;;;;3.58;1.80;;;;;;;41.66;16.52;101933.47;4911038;29;20032;-56